Time;durP1;ratioP1;P1;durP2;ratioP2;P2;SDS_P1;SDS_P2;PMS_P1;PMS_P2;Temp;Humidity;BMP_temperature;BMP_pressure;BME280_temperature;BME280_humidity;BME280_pressure;Samples;Min_cycle;Max_cycle;Signal;HPM_P1;HPM_P2
2021/07/24 00:03:02;;;;;;;21.88;13.30;;;;;;;19.33;65.49;99790.84;20983325;28;20517;-72
2021/07/24 00:13:04;;;;;;;22.95;12.75;;;;;;;19.31;65.87;99772.38;20987877;28;20052;-72
2021/07/24 00:23:11;;;;;;;20.27;12.60;;;;;;;19.38;65.83;99747.13;21000254;28;20098;-73
2021/07/24 00:33:13;;;;;;;21.27;12.30;;;;;;;19.16;67.33;99752.06;20999304;28;20490;-73
2021/07/24 00:43:16;;;;;;;20.02;12.75;;;;;;;19.19;67.11;99742.13;20999012;28;20045;-73
2021/07/24 00:53:22;;;;;;;20.85;12.65;;;;;;;19.16;67.63;99737.00;20998184;28;20044;-73
2021/07/24 01:03:24;;;;;;;22.83;13.15;;;;;;;18.94;68.50;99731.31;20995747;28;20056;-73
2021/07/24 01:13:26;;;;;;;21.30;13.48;;;;;;;18.87;68.68;99722.00;20995112;28;20049;-73
2021/07/24 01:23:29;;;;;;;20.33;13.98;;;;;;;18.82;68.85;99734.69;20992766;28;20564;-73
2021/07/24 01:33:32;;;;;;;23.30;13.35;;;;;;;18.70;69.15;99729.19;20994097;28;20040;-73
2021/07/24 01:43:35;;;;;;;19.60;12.60;;;;;;;18.74;68.79;99735.16;20994733;28;20125;-73
2021/07/24 01:53:37;;;;;;;21.80;12.82;;;;;;;18.71;68.48;99745.94;20993649;28;20040;-72
2021/07/24 02:03:44;;;;;;;20.23;13.25;;;;;;;18.71;68.53;99728.22;20992876;28;20344;-73
2021/07/24 02:13:48;;;;;;;18.83;13.20;;;;;;;18.75;68.42;99728.06;20990416;28;20052;-73
2021/07/24 02:23:49;;;;;;;20.85;13.43;;;;;;;18.75;68.42;99728.91;20991591;28;20044;-73
2021/07/24 02:33:51;;;;;;;22.80;13.77;;;;;;;18.79;68.77;99726.94;20990166;28;20682;-72
2021/07/24 02:43:53;;;;;;;23.30;14.13;;;;;;;18.87;68.44;99708.72;20990310;28;20048;-72
2021/07/24 02:53:55;;;;;;;23.23;13.98;;;;;;;18.81;68.58;99725.03;20988491;28;20045;-72
2021/07/24 03:03:57;;;;;;;21.30;14.25;;;;;;;18.60;69.91;99712.09;20987057;28;20045;-72
2021/07/24 03:13:58;;;;;;;19.65;14.05;;;;;;;18.57;69.96;99722.88;20987072;28;20368;-71
2021/07/24 03:24:00;;;;;;;23.02;14.73;;;;;;;18.70;69.88;99723.88;20968669;28;20084;-71
2021/07/24 03:34:03;;;;;;;19.88;14.32;;;;;;;18.64;70.96;99765.81;20985190;28;20533;-71
2021/07/24 03:44:04;;;;;;;21.77;13.73;;;;;;;18.50;71.22;99763.97;20985205;28;20049;-71
2021/07/24 03:54:06;;;;;;;24.17;15.45;;;;;;;18.46;71.47;99783.63;20984405;28;20490;-71
2021/07/24 04:04:08;;;;;;;24.27;15.15;;;;;;;18.68;70.59;99784.13;20947255;28;20045;-71
2021/07/24 04:14:10;;;;;;;20.58;13.60;;;;;;;18.62;71.09;99796.84;20901031;28;20053;-72
2021/07/24 04:24:12;;;;;;;22.27;14.60;;;;;;;18.69;71.38;99822.94;20899208;28;20052;-71
2021/07/24 04:34:14;;;;;;;21.92;14.80;;;;;;;18.84;70.25;99788.50;20899237;28;20395;-71
2021/07/24 04:44:16;;;;;;;24.45;14.95;;;;;;;18.94;70.33;99792.31;20906662;28;20090;-72
2021/07/24 04:54:18;;;;;;;18.63;13.13;;;;;;;19.16;69.55;99802.47;20982828;28;20102;-72
2021/07/24 05:04:20;;;;;;;17.98;13.50;;;;;;;19.32;69.72;99810.38;20973816;28;20087;-72
2021/07/24 05:14:21;;;;;;;19.10;13.52;;;;;;;19.38;70.63;99816.16;20978107;28;20102;-72
2021/07/24 05:24:24;;;;;;;21.83;14.27;;;;;;;19.53;70.17;99827.63;20994889;28;20052;-72
2021/07/24 05:34:25;;;;;;;23.55;14.55;;;;;;;20.09;68.27;99828.56;20992432;28;20086;-72
2021/07/24 05:44:27;;;;;;;19.25;13.73;;;;;;;20.44;67.31;99828.06;20976233;28;20044;-72
2021/07/24 05:54:29;;;;;;;19.25;13.52;;;;;;;20.30;68.39;99849.38;20973997;28;20686;-72
2021/07/24 06:04:32;;;;;;;16.92;13.07;;;;;;;20.03;69.98;99863.50;20990642;28;20054;-72
2021/07/24 06:14:35;;;;;;;18.42;13.45;;;;;;;19.86;70.36;99892.94;20986903;28;20056;-73
2021/07/24 06:24:37;;;;;;;20.75;13.68;;;;;;;19.84;70.95;99913.44;20973472;28;20059;-72
2021/07/24 06:34:38;;;;;;;21.73;15.05;;;;;;;19.89;71.15;99880.31;20989107;28;20114;-72
2021/07/24 06:44:40;;;;;;;19.33;13.07;;;;;;;20.04;71.33;99835.13;20988964;28;20048;-72
2021/07/24 06:54:42;;;;;;;27.35;15.25;;;;;;;20.14;71.62;99818.47;20988551;28;20555;-72
2021/07/24 07:04:43;;;;;;;26.73;15.80;;;;;;;20.26;73.63;99792.91;20976051;28;20052;-72
2021/07/24 07:14:45;;;;;;;38.72;22.52;;;;;;;20.25;74.74;99812.47;20952964;28;20048;-73
2021/07/24 07:24:47;;;;;;;31.02;21.58;;;;;;;20.24;75.12;99774.41;20935157;28;20465;-73
2021/07/24 07:34:48;;;;;;;25.95;16.27;;;;;;;20.42;73.86;99803.41;20902661;28;20057;-73
2021/07/24 07:44:50;;;;;;;23.70;15.30;;;;;;;20.72;71.96;99833.31;20980814;28;20049;-73
2021/07/24 07:54:52;;;;;;;22.65;15.50;;;;;;;21.49;69.07;99830.75;20985805;28;20490;-72
2021/07/24 08:04:54;;;;;;;18.48;13.45;;;;;;;21.52;68.64;99825.22;20985209;28;20143;-73
2021/07/24 08:14:56;;;;;;;20.17;14.10;;;;;;;21.74;67.68;99789.91;20941656;28;20046;-73
2021/07/24 08:24:58;;;;;;;19.38;13.48;;;;;;;21.98;66.56;99776.59;20883760;28;20081;-74
2021/07/24 08:35:00;;;;;;;22.27;13.27;;;;;;;22.54;64.46;99784.94;20888409;28;20053;-73
2021/07/24 08:45:03;;;;;;;22.55;13.18;;;;;;;23.14;62.04;99778.59;20917162;28;20470;-73
2021/07/24 08:55:07;;;;;;;19.35;12.82;;;;;;;23.53;59.89;99784.44;20916099;28;20044;-74
2021/07/24 09:05:10;;;;;;;;;;;;;;;24.26;58.95;99793.72;20915376;28;20048;-74
2021/07/24 09:15:15;;;;;;;17.17;11.52;;;;;;;24.50;59.01;99797.06;20958835;28;19993;-74
2021/07/24 09:25:19;;;;;;;15.25;10.25;;;;;;;24.88;55.54;99813.56;20996540;28;20052;-74
2021/07/24 09:35:35;;;;;;;15.15;9.32;;;;;;;24.84;56.03;99799.56;20976930;28;20559;-73
2021/07/24 09:45:37;;;;;;;12.52;8.98;;;;;;;25.19;54.91;99795.75;20992954;28;20045;-73
2021/07/24 09:55:45;;;;;;;14.40;9.45;;;;;;;25.33;54.04;99792.72;20975110;28;20064;-73
2021/07/24 10:05:47;;;;;;;12.48;9.30;;;;;;;25.80;54.23;99769.78;20988997;28;20460;-74
2021/07/24 10:15:49;;;;;;;12.80;8.93;;;;;;;26.22;52.99;99755.34;20981482;28;20398;-74
2021/07/24 10:26:00;;;;;;;12.43;8.55;;;;;;;26.43;51.54;99757.91;20990171;28;20585;-73
2021/07/24 10:36:16;;;;;;;12.95;7.80;;;;;;;27.36;48.34;99747.31;20971598;28;20851;-73
2021/07/24 10:46:18;;;;;;;13.88;7.47;;;;;;;27.70;47.50;99725.22;20988816;28;20049;-72
2021/07/24 10:56:40;;;;;;;10.13;6.93;;;;;;;27.89;45.96;99734.19;20987755;28;20532;-73
2021/07/24 11:06:42;;;;;;;12.23;6.97;;;;;;;28.06;46.52;99744.13;20986807;28;20094;-73
2021/07/24 11:17:03;;;;;;;9.40;6.40;;;;;;;28.05;45.82;99739.75;20968063;28;20463;-73
2021/07/24 11:27:05;;;;;;;9.80;6.25;;;;;;;27.97;45.34;99731.56;20986263;28;20056;-73
2021/07/24 11:37:07;;;;;;;10.73;5.87;;;;;;;28.23;46.09;99708.28;20984980;28;20563;-75
2021/07/24 11:47:09;;;;;;;8.05;5.10;;;;;;;28.25;46.59;99687.44;20985440;28;20098;-74
2021/07/24 11:57:26;;;;;;;7.60;5.32;;;;;;;28.53;45.45;99681.97;20984463;28;20052;-73
2021/07/24 12:07:28;;;;;;;7.97;6.00;;;;;;;28.48;46.13;99670.84;20986574;28;20150;-73
2021/07/24 12:17:30;;;;;;;9.43;4.78;;;;;;;27.94;44.81;99678.06;20935946;28;20045;-73
2021/07/24 12:27:32;;;;;;;9.15;4.95;;;;;;;28.18;43.85;99661.31;20917227;28;20053;-73
2021/07/24 12:37:34;;;;;;;11.35;5.85;;;;;;;27.29;47.60;99670.91;20925337;28;20045;-74
2021/07/24 12:47:41;;;;;;;10.20;6.10;;;;;;;28.27;45.79;99661.22;20914835;28;20140;-74
2021/07/24 12:57:45;;;;;;;10.85;6.03;;;;;;;27.96;46.25;99679.59;20915253;28;20057;-73
2021/07/24 13:07:48;;;;;;;;;;;;;;;28.38;46.31;99695.16;20912404;28;20083;-75
2021/07/24 13:17:50;;;;;;;8.83;4.47;;;;;;;28.38;44.48;99701.38;20962871;28;19928;-74
2021/07/24 13:38:13;;;;;;;6.93;4.15;;;;;;;27.57;44.50;99722.03;20948060;28;20049;-74
2021/07/24 13:48:16;;;;;;;8.25;4.53;;;;;;;27.57;45.84;99743.53;20938237;28;20094;-73
2021/07/24 13:58:18;;;;;;;6.00;4.10;;;;;;;27.37;46.00;99732.03;20961618;28;20052;-73
2021/07/24 14:08:20;;;;;;;7.25;4.60;;;;;;;26.96;46.73;99746.69;20910494;28;20129;-73
2021/07/24 14:18:27;;;;;;;10.30;4.38;;;;;;;26.98;46.85;99742.03;20974017;28;20125;-74
2021/07/24 14:28:32;;;;;;;8.43;4.53;;;;;;;26.95;46.04;99723.50;20999329;28;20449;-74
2021/07/24 14:38:34;;;;;;;8.40;4.38;;;;;;;27.25;45.03;99712.53;20989941;28;20040;-74
2021/07/24 14:48:39;;;;;;;8.37;4.60;;;;;;;26.86;46.25;99696.50;20972113;28;20055;-74
2021/07/24 14:58:43;;;;;;;7.10;4.25;;;;;;;27.15;43.94;99663.34;20986951;28;20049;-73
2021/07/24 15:08:52;;;;;;;8.15;4.57;;;;;;;27.01;44.59;99639.63;20986469;28;20135;-73
2021/07/24 15:18:53;;;;;;;6.93;4.00;;;;;;;26.94;45.22;99643.91;20910966;28;20123;-73
2021/07/24 15:28:56;;;;;;;8.10;4.40;;;;;;;26.55;46.14;99644.88;20903401;28;20712;-73
2021/07/24 15:38:57;;;;;;;7.68;4.63;;;;;;;26.96;46.37;99642.75;20938233;28;20058;-73
2021/07/24 15:48:59;;;;;;;8.95;4.82;;;;;;;27.05;45.22;99646.41;20910593;28;20053;-73
2021/07/24 15:59:04;;;;;;;10.73;4.47;;;;;;;27.28;43.53;99642.34;20900623;28;20094;-74
2021/07/24 16:09:07;;;;;;;8.40;4.40;;;;;;;27.69;41.59;99626.66;20949573;28;20113;-73
2021/07/24 16:19:11;;;;;;;6.40;4.13;;;;;;;27.30;43.22;99613.47;20949374;28;20053;-73
2021/07/24 16:29:13;;;;;;;8.65;4.50;;;;;;;27.85;41.60;99617.97;20970650;28;20437;-74
2021/07/24 16:39:15;;;;;;;8.43;4.93;;;;;;;27.31;43.50;99636.69;20900671;28;20044;-74
2021/07/24 16:49:17;;;;;;;7.55;4.53;;;;;;;27.40;43.28;99640.28;20942087;28;20127;-74
2021/07/24 16:59:23;;;;;;;29.52;19.52;;;;;;;27.28;43.57;99655.78;20993773;28;20049;-74
2021/07/24 17:09:24;;;;;;;7.05;4.50;;;;;;;27.10;43.57;99644.13;20978803;28;20052;-74
2021/07/24 17:19:26;;;;;;;9.55;5.05;;;;;;;26.28;45.72;99621.44;20970556;28;20049;-73
2021/07/24 17:29:29;;;;;;;10.30;5.20;;;;;;;25.80;46.77;99622.31;20995114;28;20056;-75
2021/07/24 17:39:31;;;;;;;8.80;4.83;;;;;;;25.95;46.95;99636.13;20998302;28;20082;-73
2021/07/24 17:49:33;;;;;;;14.88;5.90;;;;;;;25.64;51.00;99658.69;20993316;28;20105;-73
2021/07/24 17:59:35;;;;;;;11.48;6.18;;;;;;;25.28;61.77;99658.28;20993543;28;20140;-70
2021/07/24 18:09:37;;;;;;;9.32;5.45;;;;;;;25.23;66.99;99645.28;20991320;28;20506;-70
2021/07/24 18:19:39;;;;;;;14.65;6.65;;;;;;;24.42;73.97;99679.09;20922229;28;20102;-70
2021/07/24 18:29:40;;;;;;;13.18;6.05;;;;;;;23.75;71.97;99708.75;20984526;28;20074;-71
2021/07/24 18:39:42;;;;;;;9.43;6.43;;;;;;;23.33;72.27;99667.59;20989795;28;20111;-71
2021/07/24 18:49:43;;;;;;;12.45;6.28;;;;;;;22.97;70.77;99666.91;20988259;28;20083;-72
2021/07/24 18:59:45;;;;;;;10.27;6.38;;;;;;;22.76;74.33;99736.97;20987753;28;20064;-72
2021/07/24 19:09:47;;;;;;;11.80;6.88;;;;;;;22.62;74.89;99723.84;20984398;28;20048;-73
2021/07/24 19:19:49;;;;;;;12.25;7.25;;;;;;;22.70;76.17;99736.59;21013627;28;20463;-73
2021/07/24 19:29:52;;;;;;;11.07;7.05;;;;;;;22.41;77.23;99725.47;21007357;28;20044;-74
2021/07/24 19:39:53;;;;;;;8.95;6.80;;;;;;;22.22;77.02;99740.16;20999059;28;20036;-72
2021/07/24 19:49:55;;;;;;;10.63;6.97;;;;;;;21.69;79.06;99754.75;21007280;28;20067;-71
2021/07/24 19:59:57;;;;;;;11.50;7.65;;;;;;;21.58;78.56;99773.31;21023722;28;20057;-72
2021/07/24 20:09:59;;;;;;;12.27;7.20;;;;;;;21.29;79.04;99746.06;20984850;28;20094;-71
2021/07/24 20:20:02;;;;;;;12.60;7.75;;;;;;;21.36;78.30;99760.66;20995641;28;20506;-71
2021/07/24 20:30:04;;;;;;;10.77;7.38;;;;;;;21.41;79.14;99746.03;20996762;28;20509;-71
2021/07/24 20:40:07;;;;;;;12.88;8.63;;;;;;;21.33;80.92;99736.94;20987254;28;20098;-72
2021/07/24 20:50:11;;;;;;;12.47;8.70;;;;;;;21.24;81.29;99749.03;20983719;28;20110;-72
2021/07/24 21:00:17;;;;;;;11.13;8.13;;;;;;;21.05;81.92;99765.44;20978419;28;20047;-72
2021/07/24 21:10:19;;;;;;;12.95;8.25;;;;;;;20.87;81.70;99756.91;20970473;28;20057;-73
2021/07/24 21:20:21;;;;;;;15.98;9.05;;;;;;;20.72;81.97;99742.84;20961828;28;20048;-72
2021/07/24 21:30:31;;;;;;;14.25;9.65;;;;;;;20.68;83.28;99730.69;20994776;28;20055;-73
2021/07/24 21:40:33;;;;;;;16.02;9.88;;;;;;;20.54;83.78;99752.06;20991569;28;20470;-74
2021/07/24 21:50:35;;;;;;;15.82;9.43;;;;;;;20.39;84.90;99777.00;20990901;28;20072;-73
2021/07/24 22:00:37;;;;;;;16.90;10.10;;;;;;;20.34;84.78;99797.72;20990643;28;20051;-75
2021/07/24 22:10:40;;;;;;;15.07;10.75;;;;;;;20.36;84.06;99802.00;20970756;28;20444;-74
2021/07/24 22:20:47;;;;;;;18.55;10.48;;;;;;;20.20;84.89;99804.78;20988425;28;20117;-72
2021/07/24 22:30:49;;;;;;;17.67;10.32;;;;;;;19.98;85.52;99791.19;20988131;28;20037;-72
2021/07/24 22:40:51;;;;;;;18.67;10.15;;;;;;;19.86;85.45;99795.47;20987522;28;20056;-73
2021/07/24 22:50:53;;;;;;;17.08;9.63;;;;;;;19.73;85.41;99790.09;20967395;28;20048;-73
2021/07/24 23:00:54;;;;;;;15.90;10.23;;;;;;;19.54;85.60;99775.38;20985275;28;20045;-73
2021/07/24 23:10:56;;;;;;;15.68;10.35;;;;;;;19.42;85.49;99779.66;20985198;28;20056;-72
2021/07/24 23:20:58;;;;;;;16.23;9.98;;;;;;;19.36;85.02;99780.91;20983729;28;20075;-73
2021/07/24 23:31:00;;;;;;;17.52;10.73;;;;;;;19.26;85.09;99776.22;20965445;28;20049;-74
2021/07/24 23:41:02;;;;;;;11.85;8.65;;;;;;;19.19;84.95;99787.22;20984481;28;20056;-72
2021/07/24 23:51:04;;;;;;;13.25;8.32;;;;;;;19.20;84.45;99796.88;20983789;28;20052;-73
